Time;durP1;ratioP1;P1;durP2;ratioP2;P2;SDS_P1;SDS_P2;PMS_P1;PMS_P2;Temp;Humidity;BMP_temperature;BMP_pressure;BME280_temperature;BME280_humidity;BME280_pressure;Samples;Min_cycle;Max_cycle;Signal;HPM_P1;HPM_P2
2023/08/26 05:20:20;;;;;;;4.72;4.28;;;;;;;21.29;92.97;96413.78;6216835;23;20078;-76
2023/08/26 05:22:47;;;;;;;6.68;3.78;;;;;;;21.30;90.39;96420.69;6216057;23;20024;-76
2023/08/26 05:25:15;;;;;;;5.10;3.63;;;;;;;21.27;89.75;96419.34;6215732;23;20532;-76
2023/08/26 05:27:43;;;;;;;4.30;3.90;;;;;;;21.28;90.53;96423.59;6215853;23;20029;-76
2023/08/26 05:30:12;;;;;;;4.70;3.92;;;;;;;21.26;89.35;96425.69;6215748;23;20043;-76
2023/08/26 05:32:40;;;;;;;6.15;4.20;;;;;;;21.28;91.47;96418.28;6215653;23;20024;-77
2023/08/26 05:35:08;;;;;;;5.00;3.60;;;;;;;21.27;88.11;96402.63;6222060;23;20090;-76
2023/08/26 05:37:43;;;;;;;6.30;4.00;;;;;;;21.27;91.30;96399.97;6219048;23;20024;-76
2023/08/26 05:40:12;;;;;;;4.60;3.75;;;;;;;21.27;90.09;96400.75;6216167;23;20106;-77
2023/08/26 05:42:40;;;;;;;6.35;3.80;;;;;;;21.30;90.87;96405.56;6216249;23;20024;-76
2023/08/26 05:45:08;;;;;;;3.90;3.50;;;;;;;21.32;91.34;96405.34;6216012;23;20026;-76
2023/08/26 05:47:36;;;;;;;5.82;4.10;;;;;;;21.33;92.53;96420.19;6216053;23;20339;-77
2023/08/26 05:50:05;;;;;;;4.43;4.00;;;;;;;21.35;92.74;96421.53;6215887;23;20108;-76
2023/08/26 05:52:33;;;;;;;5.30;4.05;;;;;;;21.38;92.88;96418.38;6216581;23;20397;-77
2023/08/26 05:55:02;;;;;;;4.93;4.30;;;;;;;21.41;91.86;96422.41;6215925;23;20328;-76
2023/08/26 05:57:30;;;;;;;5.50;3.95;;;;;;;21.39;90.80;96425.25;6215247;23;20363;-77
2023/08/26 05:59:58;;;;;;;3.92;3.58;;;;;;;21.35;88.24;96424.16;6216381;23;20024;-76
2023/08/26 06:02:26;;;;;;;6.10;4.05;;;;;;;21.32;89.32;96437.97;6216131;23;20026;-77
2023/08/26 06:04:53;;;;;;;6.43;4.13;;;;;;;21.35;90.01;96447.25;6215689;23;20028;-77
2023/08/26 06:07:21;;;;;;;7.32;4.20;;;;;;;21.34;89.95;96453.59;6215720;23;20358;-77
2023/08/26 06:09:49;;;;;;;4.93;4.35;;;;;;;21.32;89.86;96461.84;6215439;23;20082;-77
2023/08/26 06:12:18;;;;;;;5.28;4.30;;;;;;;21.34;91.23;96459.72;6215085;23;20466;-77
2023/08/26 06:14:45;;;;;;;6.03;4.18;;;;;;;21.35;91.40;96448.06;6215463;23;20024;-76
2023/08/26 06:17:13;;;;;;;6.97;4.40;;;;;;;21.35;91.48;96445.41;6215654;23;20024;-77
2023/08/26 06:19:40;;;;;;;6.35;4.65;;;;;;;21.35;91.09;96434.78;6215779;23;20084;-76
2023/08/26 06:22:08;;;;;;;6.05;4.85;;;;;;;21.36;90.92;96438.22;6215806;23;20059;-77
2023/08/26 06:24:36;;;;;;;4.82;4.28;;;;;;;21.37;89.89;96435.34;6215658;23;20028;-76
2023/08/26 06:27:06;;;;;;;9.07;4.85;;;;;;;21.42;89.38;96436.47;6215457;23;20028;-76
2023/08/26 06:29:34;;;;;;;6.80;4.78;;;;;;;21.42;88.74;96439.91;6215686;23;20063;-76
2023/08/26 06:32:02;;;;;;;5.15;4.72;;;;;;;21.43;90.07;96446.81;6215226;23;20075;-76
2023/08/26 06:34:30;;;;;;;7.30;4.40;;;;;;;21.44;87.97;96442.31;6215586;23;20100;-76
2023/08/26 06:36:57;;;;;;;5.05;4.25;;;;;;;21.45;88.76;96439.41;6213917;23;20071;-75
2023/08/26 06:39:25;;;;;;;5.18;4.57;;;;;;;21.52;91.22;96447.94;6215577;23;20102;-75
2023/08/26 06:41:53;;;;;;;6.45;4.80;;;;;;;21.55;87.68;96444.78;6216354;23;20091;-75
2023/08/26 06:44:20;;;;;;;5.05;4.18;;;;;;;21.54;85.07;96443.19;6214572;23;20406;-75
2023/08/26 06:46:49;;;;;;;6.78;4.55;;;;;;;21.64;86.74;96452.25;6214633;23;20060;-71
2023/08/26 06:49:17;;;;;;;5.75;4.35;;;;;;;21.71;86.16;96453.66;6223009;23;20024;-69
2023/08/26 06:51:44;;;;;;;5.85;5.10;;;;;;;21.77;82.08;96451.81;6213497;23;20027;-69
2023/08/26 06:54:12;;;;;;;5.43;4.45;;;;;;;21.76;80.40;96451.03;6212780;23;20463;-69
2023/08/26 06:56:39;;;;;;;6.43;4.10;;;;;;;21.78;80.17;96451.56;6214224;23;20598;-69
2023/08/26 06:59:07;;;;;;;9.15;4.50;;;;;;;21.78;79.66;96446.25;6214698;23;20036;-69
2023/08/26 07:01:35;;;;;;;6.85;4.72;;;;;;;21.81;82.72;96451.03;6214975;23;20017;-69
2023/08/26 07:04:05;;;;;;;6.50;4.65;;;;;;;21.85;83.86;96448.69;6214512;23;20496;-69
2023/08/26 07:06:32;;;;;;;5.53;3.88;;;;;;;21.79;80.51;96450.50;6214287;23;20035;-69
2023/08/26 07:09:00;;;;;;;7.65;4.45;;;;;;;21.72;80.85;96449.94;6214045;23;20025;-69
2023/08/26 07:11:28;;;;;;;8.75;4.95;;;;;;;21.66;82.41;96453.59;6214257;23;20465;-69
2023/08/26 07:13:56;;;;;;;5.45;4.78;;;;;;;21.58;80.73;96462.03;6214890;23;20032;-71
2023/08/26 07:16:23;;;;;;;4.72;4.20;;;;;;;21.58;80.44;96468.16;6214592;23;20025;-69
2023/08/26 07:18:51;;;;;;;6.53;4.60;;;;;;;21.63;81.92;96470.06;6221294;23;20024;-68
2023/08/26 07:21:20;;;;;;;11.07;4.68;;;;;;;21.68;79.88;96462.09;6229934;23;20096;-69
2023/08/26 07:23:47;;;;;;;7.72;4.65;;;;;;;21.68;78.08;96459.47;6219869;23;20075;-69
2023/08/26 07:26:15;;;;;;;7.03;4.45;;;;;;;21.74;80.03;96453.13;6214913;23;20067;-68
2023/08/26 07:28:44;;;;;;;7.63;4.47;;;;;;;21.83;81.98;96450.00;6214902;23;20546;-69
2023/08/26 07:31:12;;;;;;;9.23;4.03;;;;;;;21.91;79.38;96446.84;6214218;23;20021;-69
2023/08/26 07:33:39;;;;;;;8.00;3.95;;;;;;;21.95;79.89;96450.56;6214591;23;20020;-70
2023/08/26 07:36:09;;;;;;;9.57;3.97;;;;;;;21.99;78.61;96444.50;6214673;23;20466;-69
2023/08/26 07:38:38;;;;;;;9.63;3.83;;;;;;;22.08;76.64;96455.41;6222635;23;20035;-68
2023/08/26 07:41:06;;;;;;;8.95;4.32;;;;;;;22.19;80.51;96459.75;6233370;23;20242;-69
2023/08/26 08:52:33;;;;;;;4.15;2.55;;;;;;;25.08;59.59;96419.16;6274398;22;20014;-81
2023/08/26 08:55:03;;;;;;;11.45;2.83;;;;;;;25.31;58.81;96404.31;6273704;22;20035;-83
2023/08/26 08:57:36;;;;;;;7.38;2.90;;;;;;;25.59;58.05;96408.03;6272918;22;20034;-84
2023/08/26 09:00:06;;;;;;;4.90;2.63;;;;;;;25.78;56.97;96421.47;6269667;22;20042;-83
2023/08/26 09:02:42;;;;;;;4.32;2.40;;;;;;;25.96;57.40;96417.31;6265175;23;20016;-84
2023/08/26 09:05:11;;;;;;;5.38;2.88;;;;;;;26.30;54.76;96429.72;6254365;23;20365;-82
2023/08/26 09:07:42;;;;;;;3.75;2.67;;;;;;;26.74;57.99;96430.50;6231784;22;20089;-81
2023/08/26 09:10:12;;;;;;;3.83;2.83;;;;;;;27.12;56.22;96431.28;6222853;23;20065;-79
2023/08/26 09:12:41;;;;;;;6.63;2.67;;;;;;;27.30;56.91;96422.44;6225625;23;20107;-79
2023/08/26 09:15:09;;;;;;;3.42;2.28;;;;;;;27.51;56.78;96422.09;6216303;23;20079;-78
2023/08/26 09:17:45;;;;;;;6.30;2.80;;;;;;;27.41;51.90;96433.75;6219958;23;20017;-80
2023/08/26 09:20:12;;;;;;;7.30;2.47;;;;;;;27.05;51.78;96425.50;6214807;23;20024;-80
2023/08/26 09:22:42;;;;;;;6.40;2.65;;;;;;;26.61;52.06;96427.47;6221906;23;20025;-81
2023/08/26 09:25:09;;;;;;;6.07;2.88;;;;;;;26.37;53.07;96427.50;6229237;23;20012;-81
2023/08/26 09:27:43;;;;;;;3.63;2.45;;;;;;;26.20;56.59;96422.63;6224392;23;20020;-80
2023/08/26 09:30:11;;;;;;;4.80;2.58;;;;;;;26.09;57.86;96415.81;6224801;23;20031;-80
2023/08/26 09:32:41;;;;;;;5.55;2.85;;;;;;;25.95;54.58;96413.03;6219134;23;20025;-81
2023/08/26 09:35:10;;;;;;;10.30;2.53;;;;;;;25.78;54.92;96413.47;6217571;23;20095;-80
2023/08/26 09:37:37;;;;;;;7.70;2.90;;;;;;;25.59;54.27;96412.59;6226311;23;20025;-80
2023/08/26 09:40:08;;;;;;;4.25;2.22;;;;;;;25.46;54.52;96414.06;6232033;23;20043;-81
2023/08/26 09:42:35;;;;;;;6.22;2.92;;;;;;;25.36;54.67;96422.16;6228604;23;20020;-81
2023/08/26 09:45:06;;;;;;;6.57;3.33;;;;;;;25.17;54.60;96412.13;6219554;23;20028;-80
2023/08/26 09:47:37;;;;;;;5.68;2.45;;;;;;;25.12;58.86;96419.38;6216024;23;20465;-80
2023/08/26 09:50:06;;;;;;;9.30;2.72;;;;;;;25.07;56.49;96426.34;6215935;23;20017;-80
2023/08/26 09:52:42;;;;;;;4.60;2.80;;;;;;;24.99;57.76;96426.16;6215393;23;20067;-80
2023/08/26 09:55:11;;;;;;;5.85;2.97;;;;;;;25.01;60.29;96424.00;6216332;23;20099;-80
2023/08/26 09:57:39;;;;;;;6.18;3.08;;;;;;;25.03;57.73;96411.97;6216278;23;20028;-79
2023/08/26 10:00:10;;;;;;;8.10;3.42;;;;;;;25.07;56.84;96407.66;6216198;23;20090;-80
2023/08/26 10:02:39;;;;;;;5.22;3.03;;;;;;;25.21;56.01;96399.03;6217490;23;20386;-80
2023/08/26 10:05:13;;;;;;;7.60;2.55;;;;;;;25.47;58.31;96392.41;6218560;23;20133;-81
2023/08/26 10:07:42;;;;;;;4.18;2.95;;;;;;;25.70;55.19;96382.03;6217166;23;20021;-80
2023/08/26 10:10:20;;;;;;;5.63;2.83;;;;;;;25.85;52.21;96376.50;6218728;23;20024;-80
2023/08/26 10:13:01;;;;;;;5.68;3.22;;;;;;;26.03;52.34;96379.53;6217004;23;20021;-81
2023/08/26 10:15:32;;;;;;;5.97;3.42;;;;;;;26.15;52.04;96384.47;6229928;23;20071;-80
2023/08/26 10:18:04;;;;;;;10.40;3.10;;;;;;;26.30;52.64;96373.56;6223593;23;20096;-81
2023/08/26 10:20:32;;;;;;;9.90;2.97;;;;;;;26.45;52.10;96372.56;6223976;23;20025;-81
2023/08/26 10:23:02;;;;;;;5.05;2.80;;;;;;;26.59;51.47;96376.16;6224355;23;20086;-81
2023/08/26 10:25:32;;;;;;;6.30;2.75;;;;;;;26.79;50.13;96368.91;6221273;23;20025;-81
2023/08/26 10:28:03;;;;;;;9.25;2.83;;;;;;;26.93;49.57;96369.72;6223819;23;20025;-81
2023/08/26 10:30:31;;;;;;;6.70;2.40;;;;;;;27.09;50.00;96368.41;6225626;23;20021;-81
2023/08/26 10:33:00;;;;;;;7.32;2.50;;;;;;;27.13;48.94;96380.13;6229857;23;20017;-81
2023/08/26 10:35:28;;;;;;;3.40;2.30;;;;;;;26.95;49.32;96386.28;6242632;23;20005;-81
2023/08/26 10:38:09;;;;;;;3.13;2.33;;;;;;;26.76;49.60;96382.84;6241183;23;20026;-81
2023/08/26 10:40:38;;;;;;;5.95;2.13;;;;;;;26.63;49.67;96377.16;6232022;23;20033;-81
2023/08/26 10:43:09;;;;;;;;;;;;;;;26.66;51.28;96381.91;6234061;23;20016;-81
2023/08/26 10:45:47;;;;;;;4.93;2.65;;;;;;;26.74;54.80;96371.63;6230809;23;19916;-80
2023/08/26 10:48:16;;;;;;;7.28;3.03;;;;;;;26.90;51.08;96375.69;6221623;23;20091;-80
2023/08/26 10:50:46;;;;;;;5.50;2.63;;;;;;;27.02;50.73;96362.63;6214616;23;20020;-75
2023/08/26 10:53:15;;;;;;;5.55;3.33;;;;;;;27.21;52.46;96365.28;6214318;23;20021;-75
2023/08/26 10:55:47;;;;;;;13.95;8.95;;;;;;;27.39;48.83;96358.25;6214321;23;20024;-75
2023/08/26 10:58:16;;;;;;;3.35;2.17;;;;;;;27.64;50.38;96356.19;6213989;23;20025;-76
2023/08/26 11:00:46;;;;;;;5.43;2.72;;;;;;;27.91;47.83;96356.22;6214270;23;20028;-76
2023/08/26 11:03:15;;;;;;;6.60;3.10;;;;;;;28.09;47.92;96357.19;6213867;23;20361;-76
2023/08/26 11:05:44;;;;;;;7.97;2.90;;;;;;;28.21;47.06;96353.22;6214212;23;20501;-76
2023/08/26 11:08:12;;;;;;;5.15;2.42;;;;;;;28.29;46.99;96357.84;6214375;23;20022;-76
2023/08/26 11:10:42;;;;;;;7.65;3.05;;;;;;;28.17;46.92;96373.69;6214421;23;20075;-76
2023/08/26 11:13:12;;;;;;;5.45;2.95;;;;;;;27.80;47.56;96372.78;6219790;23;20039;-77
2023/08/26 11:15:41;;;;;;;4.63;2.33;;;;;;;27.47;48.00;96373.66;6230903;23;20017;-77
2023/08/26 11:18:11;;;;;;;25.48;19.67;;;;;;;27.24;51.48;96361.22;6231111;23;20024;-77
2023/08/26 11:20:39;;;;;;;13.10;4.07;;;;;;;27.10;50.46;96361.94;6223564;23;20123;-75
2023/08/26 11:23:07;;;;;;;7.93;3.40;;;;;;;27.00;52.37;96355.97;6215904;23;20023;-76
2023/08/26 11:25:36;;;;;;;4.90;2.40;;;;;;;26.86;50.73;96342.56;6214538;23;20021;-75
2023/08/26 11:28:05;;;;;;;3.72;2.30;;;;;;;26.66;50.06;96344.47;6214753;23;20021;-76
2023/08/26 11:30:38;;;;;;;7.43;2.25;;;;;;;26.51;52.71;96355.38;6214234;23;20071;-76
2023/08/26 11:33:11;;;;;;;7.57;3.28;;;;;;;26.38;51.96;96348.06;6214441;23;20020;-77
2023/08/26 11:35:39;;;;;;;6.38;3.15;;;;;;;26.20;52.47;96342.44;6214429;23;20016;-76
2023/08/26 11:38:12;;;;;;;4.50;2.72;;;;;;;26.07;53.92;96340.47;6214261;23;20021;-76
2023/08/26 11:40:40;;;;;;;3.72;3.03;;;;;;;25.92;52.92;96335.31;6214725;23;20367;-77
2023/08/26 11:43:08;;;;;;;5.35;2.75;;;;;;;25.83;56.16;96349.28;6213978;23;20024;-76
2023/08/26 11:45:39;;;;;;;6.47;3.05;;;;;;;25.84;55.87;96342.84;6213769;23;20051;-75
2023/08/26 11:48:09;;;;;;;4.80;3.08;;;;;;;25.75;53.66;96336.53;6214006;23;20025;-76
2023/08/26 11:50:37;;;;;;;6.97;3.08;;;;;;;25.77;55.02;96337.06;6214331;23;20075;-76
2023/08/26 11:53:06;;;;;;;8.77;3.67;;;;;;;25.92;55.64;96346.00;6213548;23;20473;-76
2023/08/26 11:55:34;;;;;;;5.13;3.08;;;;;;;25.99;53.11;96346.44;6214066;23;20024;-77
2023/08/26 11:58:03;;;;;;;3.55;2.75;;;;;;;25.97;55.50;96343.25;6214139;23;20020;-76
2023/08/26 12:00:33;;;;;;;8.13;3.22;;;;;;;25.89;53.49;96353.50;6214094;23;20075;-76
2023/08/26 12:03:04;;;;;;;5.75;3.08;;;;;;;25.80;53.35;96352.53;6213367;23;20021;-76
2023/08/26 12:05:45;;;;;;;4.15;2.85;;;;;;;25.67;55.95;96353.19;6213739;23;20651;-76
2023/08/26 12:08:15;;;;;;;5.28;2.75;;;;;;;25.58;55.59;96355.72;6214021;23;20021;-76
2023/08/26 12:10:43;;;;;;;4.80;2.85;;;;;;;25.45;54.53;96353.69;6214081;23;20044;-76
2023/08/26 12:13:11;;;;;;;3.83;3.05;;;;;;;25.37;57.75;96349.00;6213827;23;20076;-75
2023/08/26 12:15:40;;;;;;;8.02;3.28;;;;;;;25.27;55.49;96344.53;6213883;23;20031;-73
2023/08/26 12:18:10;;;;;;;3.50;2.95;;;;;;;25.18;58.11;96330.19;6214327;23;20114;-77
2023/08/26 12:20:40;;;;;;;4.55;2.90;;;;;;;25.16;56.53;96337.69;6214302;23;20020;-75
2023/08/26 12:23:09;;;;;;;8.13;2.90;;;;;;;25.20;57.85;96341.41;6213982;23;20066;-79
2023/08/26 12:25:39;;;;;;;5.47;3.15;;;;;;;25.29;55.42;96327.16;6214510;23;20082;-79
2023/08/26 12:28:12;;;;;;;4.38;2.70;;;;;;;25.28;61.22;96346.94;6213482;23;20044;-78
2023/08/26 12:30:40;;;;;;;4.22;3.03;;;;;;;25.22;56.70;96352.59;6213704;23;20024;-78
2023/08/26 12:33:10;;;;;;;6.30;2.97;;;;;;;25.15;56.10;96336.88;6213759;23;20024;-80
2023/08/26 12:35:52;;;;;;;4.07;2.80;;;;;;;25.14;59.40;96343.28;6215005;23;20103;-79
2023/08/26 12:38:20;;;;;;;6.78;3.10;;;;;;;25.09;57.96;96336.13;6217965;23;20020;-78
2023/08/26 12:40:48;;;;;;;7.65;3.20;;;;;;;25.02;57.42;96335.66;6215773;23;20401;-78
2023/08/26 12:43:18;;;;;;;5.15;3.00;;;;;;;24.96;58.81;96339.44;6225006;23;20021;-80
2023/08/26 12:45:48;;;;;;;5.80;3.00;;;;;;;24.92;60.63;96341.09;6227979;23;20021;-80
2023/08/26 12:48:17;;;;;;;5.25;2.70;;;;;;;24.86;57.02;96350.19;6221396;23;20028;-78
2023/08/26 12:51:06;;;;;;;7.13;3.25;;;;;;;24.77;60.79;96338.53;6217573;23;20127;-79
2023/08/26 12:56:15;;;;;;;6.80;3.42;;;;;;;24.63;58.90;96338.38;6219324;22;20040;-79
2023/08/26 12:58:43;;;;;;;6.07;3.15;;;;;;;24.58;58.33;96335.78;6220780;23;20056;-79
2023/08/26 13:01:14;;;;;;;5.60;3.45;;;;;;;24.53;58.25;96344.56;6222151;23;20021;-79
2023/08/26 13:03:43;;;;;;;5.72;2.92;;;;;;;24.50;60.42;96337.13;6218083;23;20103;-79
2023/08/26 13:06:13;;;;;;;4.45;3.05;;;;;;;24.48;61.83;96320.63;6218363;23;20016;-79
2023/08/26 13:08:43;;;;;;;7.00;3.40;;;;;;;24.43;60.51;96307.31;6227399;23;20051;-79
2023/08/26 13:11:11;;;;;;;9.05;3.63;;;;;;;24.35;61.08;96286.56;6215159;23;20465;-78
2023/08/26 13:13:39;;;;;;;6.40;3.35;;;;;;;24.25;60.87;96290.91;6216367;23;20016;-77
2023/08/26 13:16:06;;;;;;;8.95;4.72;;;;;;;24.22;67.44;96288.75;6216233;23;20020;-78
2023/08/26 13:18:42;;;;;;;8.85;4.20;;;;;;;24.15;63.85;96290.94;6216347;23;20021;-79
2023/08/26 13:21:12;;;;;;;8.90;4.03;;;;;;;24.01;63.83;96303.31;6216724;23;20020;-79
2023/08/26 13:23:40;;;;;;;7.03;3.90;;;;;;;23.96;64.61;96311.31;6217358;23;20028;-78
2023/08/26 13:26:07;;;;;;;8.60;4.03;;;;;;;23.95;65.57;96309.72;6217286;23;20025;-79
2023/08/26 13:28:35;;;;;;;7.03;4.05;;;;;;;23.94;66.01;96316.09;6217446;23;20020;-79
2023/08/26 13:31:03;;;;;;;6.38;4.07;;;;;;;23.97;68.51;96320.91;6219065;23;20021;-79
2023/08/26 13:33:30;;;;;;;9.48;4.03;;;;;;;24.00;70.30;96321.13;6216631;23;20043;-79
2023/08/26 13:36:01;;;;;;;9.40;4.32;;;;;;;24.03;71.46;96325.13;6219724;23;20027;-79
2023/08/26 13:38:33;;;;;;;9.13;3.88;;;;;;;24.02;70.86;96319.00;6222578;23;20027;-78
2023/08/26 13:41:01;;;;;;;5.20;3.95;;;;;;;23.95;68.57;96309.72;6220160;23;20393;-78
2023/08/26 13:43:28;;;;;;;6.85;4.15;;;;;;;23.92;68.86;96315.59;6218573;23;20048;-78
2023/08/26 13:45:56;;;;;;;5.22;3.90;;;;;;;23.88;70.00;96312.69;6215025;23;20060;-75
2023/08/26 13:48:24;;;;;;;9.55;3.90;;;;;;;23.85;68.93;96318.56;6214098;23;20096;-76
2023/08/26 13:50:52;;;;;;;8.13;4.35;;;;;;;23.80;68.22;96322.03;6213361;23;20074;-76
2023/08/26 13:53:19;;;;;;;7.07;4.97;;;;;;;23.76;68.43;96314.88;6214153;23;20074;-76
2023/08/26 13:55:54;;;;;;;8.50;4.53;;;;;;;23.71;68.60;96313.00;6214115;23;20024;-76
2023/08/26 13:58:22;;;;;;;8.80;4.80;;;;;;;23.65;68.77;96324.72;6213080;23;20074;-76
2023/08/26 14:00:50;;;;;;;5.20;4.60;;;;;;;23.57;69.17;96334.09;6214362;23;20059;-76
2023/08/26 14:03:17;;;;;;;5.35;4.30;;;;;;;23.51;70.78;96350.34;6213943;23;20020;-76
2023/08/26 14:05:45;;;;;;;7.80;5.03;;;;;;;23.50;71.75;96360.19;6214695;23;20031;-76
2023/08/26 14:08:13;;;;;;;6.15;4.10;;;;;;;23.44;70.37;96356.75;6215159;23;20021;-76
2023/08/26 14:10:41;;;;;;;7.95;5.15;;;;;;;23.37;70.27;96355.41;6215044;23;20020;-76
2023/08/26 14:13:10;;;;;;;6.63;4.75;;;;;;;23.30;69.81;96355.69;6232218;23;20012;-77
2023/08/26 14:15:40;;;;;;;7.32;5.68;;;;;;;23.19;69.84;96370.09;6241372;23;20017;-77
2023/08/26 14:18:08;;;;;;;9.73;6.32;;;;;;;23.01;69.61;96369.56;6238946;23;20025;-77
2023/08/26 14:20:36;;;;;;;6.88;5.40;;;;;;;22.84;70.36;96376.97;6215259;23;20024;-76
2023/08/26 14:23:04;;;;;;;5.45;4.95;;;;;;;22.67;70.03;96379.09;6215429;23;20079;-76
2023/08/26 14:25:31;;;;;;;8.20;4.70;;;;;;;22.55;70.41;96392.66;6214821;23;20021;-76
2023/08/26 14:27:59;;;;;;;7.07;4.75;;;;;;;22.44;70.35;96397.13;6215036;23;20028;-76
2023/08/26 14:30:28;;;;;;;8.40;5.20;;;;;;;22.37;72.56;96408.03;6215151;23;20107;-76
2023/08/26 14:32:56;;;;;;;6.68;4.93;;;;;;;22.32;71.93;96412.50;6214664;23;20033;-76
2023/08/26 14:35:24;;;;;;;5.43;4.07;;;;;;;22.25;71.40;96406.66;6214883;23;20403;-76
2023/08/26 14:37:51;;;;;;;6.88;4.28;;;;;;;22.17;71.58;96390.13;6214833;23;20398;-76
2023/08/26 14:40:19;;;;;;;8.07;4.35;;;;;;;22.15;72.61;96376.31;6214462;23;20024;-76
2023/08/26 14:42:47;;;;;;;5.57;4.45;;;;;;;22.10;71.67;96333.78;6214670;23;20028;-76
2023/08/26 14:45:15;;;;;;;6.78;4.88;;;;;;;22.02;71.83;96332.44;6214593;23;20021;-76
2023/08/26 14:47:45;;;;;;;5.30;4.15;;;;;;;21.95;70.87;96349.66;6214893;23;20021;-76
2023/08/26 14:50:13;;;;;;;6.25;4.35;;;;;;;21.85;68.85;96355.75;6214574;23;20103;-76
2023/08/26 14:52:41;;;;;;;5.57;3.25;;;;;;;21.71;68.54;96360.75;6214591;23;20079;-76
2023/08/26 14:55:09;;;;;;;5.18;3.30;;;;;;;21.60;68.21;96369.69;6214436;23;20104;-76
2023/08/26 14:57:36;;;;;;;5.20;3.65;;;;;;;21.51;67.84;96372.03;6214593;23;20028;-76
2023/08/26 15:00:09;;;;;;;5.40;3.55;;;;;;;21.46;67.85;96381.81;6214326;23;20462;-76
2023/08/26 15:02:37;;;;;;;10.20;4.40;;;;;;;21.38;67.66;96393.66;6214508;23;20475;-76
2023/08/26 15:05:06;;;;;;;8.18;4.68;;;;;;;21.29;67.89;96393.34;6214606;23;20020;-76
2023/08/26 15:07:34;;;;;;;6.78;3.60;;;;;;;21.21;69.19;96407.09;6223571;22;20028;-79
2023/08/26 15:10:04;;;;;;;6.70;5.70;;;;;;;21.22;70.40;96392.78;6255947;23;20013;-79
2023/08/26 15:12:33;;;;;;;10.85;7.40;;;;;;;21.21;70.63;96407.09;6254950;23;20020;-80
2023/08/26 15:15:01;;;;;;;13.68;7.80;;;;;;;21.23;71.43;96410.31;6255496;23;20075;-79
2023/08/26 15:17:30;;;;;;;12.45;4.70;;;;;;;21.24;74.08;96417.19;6245813;23;20047;-79
2023/08/26 15:19:59;;;;;;;9.82;3.95;;;;;;;21.25;71.90;96431.25;6226410;23;20021;-79
2023/08/26 15:22:29;;;;;;;4.43;3.75;;;;;;;21.21;70.42;96425.69;6225688;23;20397;-79
2023/08/26 15:24:57;;;;;;;7.32;3.80;;;;;;;21.14;70.12;96422.41;6224786;23;20036;-79
2023/08/26 15:27:26;;;;;;;7.22;4.43;;;;;;;21.10;73.21;96442.53;6225756;23;20076;-79
2023/08/26 15:29:54;;;;;;;6.00;3.47;;;;;;;21.04;69.90;96425.78;6224832;23;20480;-79
2023/08/26 15:32:23;;;;;;;5.60;3.25;;;;;;;20.96;69.51;96413.00;6224862;23;20026;-79
2023/08/26 15:34:51;;;;;;;6.18;3.20;;;;;;;20.87;69.41;96410.00;6225060;23;20027;-79
2023/08/26 15:37:20;;;;;;;5.35;3.45;;;;;;;20.78;68.41;96408.88;6225131;23;20080;-79
2023/08/26 15:39:50;;;;;;;6.47;3.50;;;;;;;20.73;69.60;96416.78;6225453;23;20043;-79
2023/08/26 15:42:18;;;;;;;3.25;2.70;;;;;;;20.71;68.76;96424.19;6225984;23;20099;-79
2023/08/26 15:44:47;;;;;;;5.72;3.30;;;;;;;20.66;69.23;96421.47;6225183;23;20021;-79
2023/08/26 15:47:15;;;;;;;4.50;2.97;;;;;;;20.65;68.67;96430.47;6225791;23;20035;-79
2023/08/26 15:49:44;;;;;;;4.85;3.28;;;;;;;20.65;70.54;96427.81;6226433;23;20027;-79
2023/08/26 15:52:12;;;;;;;5.00;3.28;;;;;;;20.62;69.20;96421.19;6226219;23;20481;-79
2023/08/26 15:54:42;;;;;;;4.78;2.85;;;;;;;20.58;69.19;96415.56;6226107;23;20031;-79
2023/08/26 15:57:15;;;;;;;5.28;3.22;;;;;;;20.57;69.12;96427.22;6226082;23;20517;-79
2023/08/26 15:59:43;;;;;;;5.40;4.15;;;;;;;20.59;71.01;96426.97;6225673;23;20107;-79
2023/08/26 16:02:12;;;;;;;4.88;3.80;;;;;;;20.61;71.71;96429.38;6225686;23;20028;-79
2023/08/26 16:04:41;;;;;;;5.25;3.38;;;;;;;20.64;72.79;96439.47;6225249;23;20040;-79
2023/08/26 16:07:11;;;;;;;3.80;2.95;;;;;;;20.61;70.78;96434.66;6224392;23;20099;-79
2023/08/26 16:09:56;;;;;;;6.65;4.00;;;;;;;20.55;72.31;96442.53;6218030;23;20024;-79
2023/08/26 16:12:29;;;;;;;5.18;3.80;;;;;;;20.58;73.55;96443.94;6213356;23;20027;-78
2023/08/26 16:14:58;;;;;;;5.10;3.75;;;;;;;20.61;74.18;96430.16;6232172;23;20027;-78
2023/08/26 16:17:28;;;;;;;4.60;3.05;;;;;;;20.62;74.80;96425.66;6225631;23;20076;-75
2023/08/26 16:19:56;;;;;;;6.10;3.92;;;;;;;20.59;73.76;96419.00;6223066;23;20048;-74
2023/08/26 16:22:24;;;;;;;4.30;3.13;;;;;;;20.50;72.37;96425.78;6223431;23;20025;-76
2023/08/26 16:24:52;;;;;;;5.40;3.50;;;;;;;20.46;74.71;96436.06;6217857;23;20096;-75
2023/08/26 16:27:19;;;;;;;19.55;13.30;;;;;;;20.47;75.48;96428.94;6230955;23;20021;-76
2023/08/26 16:29:48;;;;;;;15.95;8.90;;;;;;;20.48;75.97;96420.72;6215451;23;20362;-73
2023/08/26 16:32:16;;;;;;;6.88;4.40;;;;;;;20.46;75.85;96422.81;6214674;23;20028;-74
2023/08/26 16:34:43;;;;;;;6.95;4.03;;;;;;;20.44;74.16;96418.81;6214858;23;20106;-75
2023/08/26 16:37:11;;;;;;;4.88;3.88;;;;;;;20.36;72.82;96414.78;6214893;23;20354;-74
2023/08/26 16:39:39;;;;;;;6.57;4.55;;;;;;;20.33;75.09;96410.78;6214126;23;20457;-74
2023/08/26 16:42:06;;;;;;;8.50;5.18;;;;;;;20.33;75.96;96399.38;6214188;23;20024;-75
2023/08/26 16:44:34;;;;;;;5.38;3.75;;;;;;;20.26;74.35;96406.72;6215243;23;20343;-77
2023/08/26 16:49:49;;;;;;;7.45;3.17;;;;;;;20.16;72.91;96413.50;6210875;23;20031;-78
2023/08/26 16:52:19;;;;;;;8.48;5.32;;;;;;;20.02;71.97;96406.97;6214396;23;20027;-77
2023/08/26 16:54:48;;;;;;;4.63;3.80;;;;;;;19.95;73.31;96416.94;6215952;23;20024;-78
2023/08/26 16:59:59;;;;;;;6.18;3.03;;;;;;;19.98;74.12;96419.09;6211660;23;20042;-77
2023/08/26 17:02:28;;;;;;;5.55;3.35;;;;;;;19.99;73.75;96427.84;6223851;23;20021;-78
2023/08/26 17:18:56;;;;;;;5.90;3.30;;;;;;;20.16;76.00;96444.50;6193054;23;20038;-80
2023/08/26 17:24:04;;;;;;;6.38;4.05;;;;;;;20.23;78.87;96441.66;6213454;23;20020;-75
2023/08/26 17:26:31;;;;;;;4.15;2.90;;;;;;;20.24;74.47;96436.09;6216143;23;20074;-74
2023/08/26 17:28:59;;;;;;;2.90;2.45;;;;;;;20.21;74.25;96449.03;6216038;23;20079;-74
2023/08/26 17:31:26;;;;;;;6.20;3.28;;;;;;;20.24;76.98;96461.78;6216480;23;20032;-74
2023/08/26 17:33:55;;;;;;;3.90;2.85;;;;;;;20.24;72.97;96459.13;6216497;23;20036;-74
2023/08/26 17:36:24;;;;;;;4.43;2.42;;;;;;;20.22;73.65;96442.69;6216502;23;20016;-74
2023/08/26 17:38:51;;;;;;;7.05;3.28;;;;;;;20.31;77.00;96438.53;6215498;23;20024;-74
2023/08/26 17:41:19;;;;;;;4.65;2.78;;;;;;;20.29;72.53;96432.69;6230223;23;20028;-74
2023/08/26 17:43:46;;;;;;;5.60;2.20;;;;;;;20.24;72.52;96433.44;6230572;23;20025;-74
2023/08/26 17:46:16;;;;;;;3.33;2.70;;;;;;;20.26;75.58;96430.56;6216828;23;20086;-74
2023/08/26 17:48:43;;;;;;;4.40;2.47;;;;;;;20.32;75.98;96438.31;6224119;23;20080;-78
2023/08/26 17:51:12;;;;;;;6.00;2.58;;;;;;;20.34;74.65;96436.22;6217903;23;20051;-79
2023/08/26 17:53:40;;;;;;;4.90;2.25;;;;;;;20.37;75.14;96434.91;6218365;23;20545;-78
2023/08/26 17:56:08;;;;;;;3.28;2.65;;;;;;;20.39;74.38;96432.81;6219271;23;20058;-78
2023/08/26 17:58:35;;;;;;;6.80;3.15;;;;;;;20.40;75.42;96438.91;6218301;23;20032;-78
2023/08/26 18:01:03;;;;;;;3.35;2.58;;;;;;;20.39;75.82;96438.13;6219256;23;20020;-79
2023/08/26 18:03:31;;;;;;;5.03;3.78;;;;;;;20.31;72.34;96430.59;6219766;23;20021;-78
2023/08/26 18:05:58;;;;;;;3.20;2.45;;;;;;;20.22;71.39;96432.88;6220750;23;20019;-78
2023/08/26 18:08:28;;;;;;;6.15;3.05;;;;;;;20.16;71.74;96434.69;6217096;23;20024;-78
2023/08/26 18:10:57;;;;;;;4.18;3.33;;;;;;;20.15;76.24;96430.41;6218277;23;20031;-77
2023/08/26 18:13:25;;;;;;;6.38;3.60;;;;;;;20.23;80.01;96431.06;6215036;23;20032;-77
2023/08/26 18:15:52;;;;;;;6.20;2.85;;;;;;;20.25;79.43;96440.34;6215715;23;20066;-77
2023/08/26 18:18:20;;;;;;;4.72;3.10;;;;;;;20.26;78.73;96454.38;6216411;23;20048;-77
2023/08/26 18:20:48;;;;;;;4.18;3.10;;;;;;;20.25;76.51;96447.50;6216690;23;20024;-77
2023/08/26 18:23:16;;;;;;;4.50;3.08;;;;;;;20.18;73.27;96452.97;6216687;23;20020;-77
2023/08/26 18:25:45;;;;;;;3.75;2.78;;;;;;;20.20;77.22;96455.38;6216487;23;20024;-76
2023/08/26 18:28:12;;;;;;;4.70;2.92;;;;;;;20.23;78.66;96454.91;6216396;23;20051;-77
2023/08/26 18:30:40;;;;;;;4.45;3.65;;;;;;;20.25;80.05;96458.88;6216353;23;20029;-77
2023/08/26 18:33:07;;;;;;;7.22;3.33;;;;;;;20.15;74.02;96451.59;6215646;23;20024;-76
2023/08/26 18:35:35;;;;;;;4.38;3.45;;;;;;;20.02;72.39;96443.25;6218153;23;20051;-78